Time;durP1;ratioP1;P1;durP2;ratioP2;P2;SDS_P1;SDS_P2;PMS_P1;PMS_P2;Temp;Humidity;BMP_temperature;BMP_pressure;BME280_temperature;BME280_humidity;BME280_pressure;Samples;Min_cycle;Max_cycle;Signal;HPM_P1;HPM_P2
2023/08/31 00:00:11;;;;;;;3.05;1.58;;;;;;;11.16;100.00;100002.50;4993084;28;20485;-95
2023/08/31 00:02:38;;;;;;;3.08;1.65;;;;;;;11.27;100.00;99997.44;4993235;28;20027;-94
2023/08/31 00:05:03;;;;;;;2.20;1.20;;;;;;;11.14;100.00;100000.00;4993225;28;20022;-94
2023/08/31 00:07:29;;;;;;;2.95;1.65;;;;;;;10.95;100.00;99992.66;4992076;28;20030;-94
2023/08/31 00:09:54;;;;;;;3.88;1.38;;;;;;;10.85;100.00;99994.19;4992980;28;20023;-94
2023/08/31 00:12:22;;;;;;;2.70;1.30;;;;;;;11.02;100.00;99988.75;4992725;28;20030;-94
2023/08/31 00:14:49;;;;;;;4.32;1.10;;;;;;;11.07;100.00;99983.25;4992162;28;20019;-94
2023/08/31 00:17:14;;;;;;;3.10;1.48;;;;;;;10.93;100.00;99979.03;4992896;28;20053;-95
2023/08/31 00:19:40;;;;;;;2.78;1.40;;;;;;;10.86;100.00;99988.09;4992422;28;20077;-95
2023/08/31 00:22:05;;;;;;;3.63;1.33;;;;;;;10.81;100.00;99979.84;4992942;28;20030;-94
2023/08/31 00:24:33;;;;;;;4.35;1.75;;;;;;;10.68;100.00;99980.63;4991659;28;20254;-93
2023/08/31 00:26:58;;;;;;;2.58;1.42;;;;;;;10.65;100.00;99980.81;4992659;28;20033;-94
2023/08/31 00:29:25;;;;;;;4.22;1.42;;;;;;;10.69;100.00;99981.47;4992995;28;20475;-94
2023/08/31 00:31:53;;;;;;;3.25;1.67;;;;;;;10.73;100.00;99974.34;4992538;28;20053;-94
2023/08/31 00:34:18;;;;;;;5.68;1.85;;;;;;;10.74;100.00;99976.00;4992495;28;20026;-94
2023/08/31 00:36:44;;;;;;;2.25;1.42;;;;;;;10.71;100.00;99980.44;4992563;28;20468;-94
2023/08/31 00:39:10;;;;;;;4.55;1.50;;;;;;;10.83;100.00;99970.25;4991404;28;20054;-93
2023/08/31 00:41:37;;;;;;;7.57;2.00;;;;;;;10.86;100.00;99967.44;4992516;28;20062;-94
2023/08/31 00:44:04;;;;;;;3.53;1.30;;;;;;;10.87;100.00;99969.09;4992399;28;20117;-93
2023/08/31 00:46:31;;;;;;;3.28;1.90;;;;;;;10.71;100.00;99967.53;4995253;28;20101;-94
2023/08/31 00:48:57;;;;;;;2.80;1.45;;;;;;;10.89;100.00;99969.81;4996034;28;20037;-93
2023/08/31 00:51:23;;;;;;;2.42;1.25;;;;;;;10.76;100.00;99962.06;4996466;28;20026;-94
2023/08/31 00:53:49;;;;;;;4.35;1.70;;;;;;;10.62;100.00;99962.13;4995662;28;20380;-95
2023/08/31 00:56:17;;;;;;;3.78;1.63;;;;;;;10.57;100.00;99959.03;4996211;28;20077;-94
2023/08/31 00:58:43;;;;;;;5.13;1.50;;;;;;;10.68;100.00;99965.16;4994884;28;20029;-94
2023/08/31 01:01:33;;;;;;;2.30;1.73;;;;;;;10.60;100.00;99972.53;4994710;28;20105;-94
2023/08/31 01:04:10;;;;;;;4.53;1.52;;;;;;;11.07;100.00;99972.91;4996016;28;20490;-93
2023/08/31 01:07:02;;;;;;;3.28;1.50;;;;;;;10.80;100.00;99965.25;4994648;28;20026;-94
2023/08/31 01:09:46;;;;;;;2.45;1.42;;;;;;;10.67;100.00;99968.66;4975206;28;20061;-94
2023/08/31 01:12:18;;;;;;;3.78;1.63;;;;;;;10.73;100.00;99961.41;4976165;28;20073;-93
2023/08/31 01:15:07;;;;;;;4.95;1.58;;;;;;;10.64;100.00;99962.88;4976488;28;20114;-94
2023/08/31 01:17:39;;;;;;;5.40;1.95;;;;;;;10.49;100.00;99964.69;4976360;28;20035;-93
2023/08/31 01:20:06;;;;;;;;;;;;;;;10.62;100.00;99960.38;4976562;28;20030;-93
2023/08/31 01:22:51;;;;;;;4.18;1.65;;;;;;;10.54;100.00;99961.81;4984694;28;19918;-94
2023/08/31 01:25:17;;;;;;;6.38;1.77;;;;;;;10.43;100.00;99954.75;4995287;28;20034;-94
2023/08/31 01:27:43;;;;;;;4.05;1.33;;;;;;;10.42;100.00;99960.84;4995543;28;20424;-94
2023/08/31 01:30:09;;;;;;;4.93;2.25;;;;;;;10.45;100.00;99948.56;4995065;28;20030;-93
2023/08/31 01:32:36;;;;;;;3.95;2.17;;;;;;;10.53;100.00;99950.66;4994613;28;20052;-93
2023/08/31 01:35:05;;;;;;;4.45;1.70;;;;;;;10.51;100.00;99947.38;4995321;28;20041;-93
2023/08/31 01:37:40;;;;;;;4.20;1.80;;;;;;;10.47;100.00;99951.06;4993806;28;20045;-93
2023/08/31 01:40:14;;;;;;;3.33;1.60;;;;;;;10.52;100.00;99954.16;4995026;28;20361;-94
2023/08/31 01:42:42;;;;;;;3.08;1.90;;;;;;;10.56;100.00;99954.78;4993953;28;20034;-94
2023/08/31 01:45:08;;;;;;;2.88;1.65;;;;;;;10.55;100.00;99951.38;4995255;28;20158;-94
2023/08/31 01:47:34;;;;;;;5.65;2.65;;;;;;;10.59;100.00;99950.25;4995357;28;20030;-94
2023/08/31 01:49:59;;;;;;;4.35;2.03;;;;;;;10.59;100.00;99934.78;4994982;28;20370;-94
2023/08/31 01:52:25;;;;;;;6.30;2.55;;;;;;;10.52;100.00;99938.69;4993746;28;20485;-94
2023/08/31 01:54:50;;;;;;;6.63;2.25;;;;;;;10.60;100.00;99938.19;4994854;28;20117;-93
2023/08/31 01:57:15;;;;;;;7.15;1.83;;;;;;;10.73;100.00;99930.44;4994817;28;20464;-95
2023/08/31 01:59:41;;;;;;;5.63;1.85;;;;;;;10.66;100.00;99937.78;4993946;28;20041;-94
2023/08/31 02:02:06;;;;;;;8.07;2.13;;;;;;;10.63;100.00;99938.81;4992955;28;20081;-93
2023/08/31 02:04:32;;;;;;;4.55;2.08;;;;;;;10.71;100.00;99939.13;4994663;28;20030;-93
2023/08/31 02:06:57;;;;;;;4.05;2.20;;;;;;;10.66;100.00;99936.03;4994880;28;20154;-94
2023/08/31 02:09:22;;;;;;;6.50;2.00;;;;;;;10.63;100.00;99933.66;4994615;28;20077;-94
2023/08/31 02:11:48;;;;;;;4.47;1.83;;;;;;;10.71;100.00;99933.97;4993961;28;20030;-93
2023/08/31 02:14:14;;;;;;;6.82;1.98;;;;;;;10.76;100.00;99927.69;4993229;28;20026;-93
2023/08/31 02:16:39;;;;;;;5.90;2.38;;;;;;;10.80;100.00;99926.53;4995405;28;20033;-94
2023/08/31 02:19:04;;;;;;;5.63;2.70;;;;;;;10.83;100.00;99928.94;5013689;28;20026;-94
2023/08/31 02:21:30;;;;;;;4.75;1.83;;;;;;;10.86;100.00;99932.13;5012551;28;20030;-94
2023/08/31 02:23:55;;;;;;;4.68;2.03;;;;;;;10.85;100.00;99927.06;5014025;28;20030;-94
2023/08/31 02:26:22;;;;;;;5.45;2.28;;;;;;;10.84;100.00;99923.66;5006377;28;20018;-94
2023/08/31 02:28:47;;;;;;;3.85;1.80;;;;;;;10.87;100.00;99913.13;4994391;28;20030;-93
2023/08/31 02:31:14;;;;;;;5.55;2.30;;;;;;;10.90;100.00;99909.53;4994531;28;20383;-93
2023/08/31 02:33:40;;;;;;;3.65;2.30;;;;;;;10.95;100.00;99912.63;4994234;28;20164;-95
2023/08/31 02:36:05;;;;;;;3.63;2.08;;;;;;;10.92;100.00;99905.06;4994349;28;20105;-94
2023/08/31 02:38:30;;;;;;;3.22;1.88;;;;;;;10.85;100.00;99899.50;4993023;28;20023;-94
2023/08/31 02:40:56;;;;;;;7.20;2.35;;;;;;;10.83;100.00;99890.22;4993844;28;20123;-94
2023/08/31 02:43:21;;;;;;;5.45;1.98;;;;;;;10.89;100.00;99894.94;4994105;28;20495;-93
2023/08/31 02:45:47;;;;;;;5.72;2.28;;;;;;;10.89;100.00;99897.53;4994103;28;20388;-95
2023/08/31 02:48:13;;;;;;;5.57;2.10;;;;;;;10.93;100.00;99897.22;4993790;28;20026;-94
2023/08/31 02:50:38;;;;;;;4.55;1.80;;;;;;;10.85;100.00;99899.50;4993406;28;20037;-94
2023/08/31 02:53:04;;;;;;;4.88;2.20;;;;;;;10.91;100.00;99895.69;4993706;28;20026;-93
2023/08/31 02:55:32;;;;;;;6.72;2.00;;;;;;;10.91;100.00;99901.66;4993551;28;20053;-94
2023/08/31 02:57:57;;;;;;;8.27;2.03;;;;;;;10.95;100.00;99898.84;4993950;28;20037;-93
2023/08/31 03:00:23;;;;;;;6.00;2.10;;;;;;;11.11;100.00;99899.47;4993851;28;20034;-94
2023/08/31 03:02:51;;;;;;;4.55;1.90;;;;;;;10.84;100.00;99886.69;4992486;28;20018;-94
2023/08/31 03:05:17;;;;;;;4.75;2.00;;;;;;;10.88;100.00;99893.31;4993525;28;20030;-93
2023/08/31 03:07:43;;;;;;;3.65;1.88;;;;;;;10.83;100.00;99900.53;4993291;28;20014;-94
2023/08/31 03:10:09;;;;;;;3.30;1.95;;;;;;;10.80;100.00;99890.41;4993366;28;20535;-94
2023/08/31 03:12:34;;;;;;;3.50;1.67;;;;;;;10.71;100.00;99892.69;4993449;28;20532;-93
2023/08/31 03:15:00;;;;;;;6.05;1.73;;;;;;;10.79;100.00;99891.34;4992260;28;20057;-93
2023/08/31 03:17:25;;;;;;;4.97;2.03;;;;;;;10.77;100.00;99890.59;4993448;28;20093;-94
2023/08/31 03:19:50;;;;;;;5.68;2.35;;;;;;;10.73;100.00;99890.00;4993117;28;20455;-95
2023/08/31 03:22:16;;;;;;;4.65;1.92;;;;;;;10.86;100.00;99888.25;4993760;28;20022;-93
2023/08/31 03:24:41;;;;;;;4.53;1.77;;;;;;;10.86;100.00;99892.56;4993619;28;20088;-94
2023/08/31 03:27:07;;;;;;;3.67;1.95;;;;;;;10.95;100.00;99898.84;4993132;28;20472;-94
2023/08/31 03:29:32;;;;;;;3.67;1.77;;;;;;;10.86;100.00;99901.16;4993564;28;20033;-94
2023/08/31 03:32:00;;;;;;;2.97;1.58;;;;;;;10.74;100.00;99899.38;4993587;28;20034;-94
2023/08/31 03:34:30;;;;;;;6.70;1.80;;;;;;;10.75;100.00;99895.03;4993026;28;20026;-94
2023/08/31 03:36:55;;;;;;;5.05;2.25;;;;;;;10.74;100.00;99894.22;4992081;28;20018;-94
2023/08/31 03:39:20;;;;;;;5.35;1.85;;;;;;;10.76;100.00;99894.94;4993294;28;20089;-94
2023/08/31 03:41:46;;;;;;;5.05;1.80;;;;;;;10.74;100.00;99889.06;4993457;28;20030;-94
2023/08/31 03:44:11;;;;;;;4.10;1.80;;;;;;;10.73;100.00;99894.31;4993256;28;20476;-94
2023/08/31 03:46:36;;;;;;;4.50;1.70;;;;;;;10.73;100.00;99895.16;4991621;28;20030;-95
2023/08/31 03:49:02;;;;;;;6.10;2.05;;;;;;;10.71;100.00;99897.84;4993007;28;20061;-94
2023/08/31 03:51:27;;;;;;;2.55;1.75;;;;;;;10.77;100.00;99896.59;4992625;28;20045;-95
2023/08/31 03:53:54;;;;;;;6.32;1.92;;;;;;;10.78;100.00;99892.25;4992092;28;20030;-94
2023/08/31 03:56:20;;;;;;;3.45;1.73;;;;;;;10.86;100.00;99887.41;4991950;28;20026;-96
2023/08/31 03:58:45;;;;;;;4.38;1.77;;;;;;;10.92;100.00;99889.56;4993375;28;20030;-94
2023/08/31 04:01:10;;;;;;;3.58;1.55;;;;;;;10.93;100.00;99896.41;4992504;28;20080;-95
2023/08/31 04:03:36;;;;;;;5.53;1.83;;;;;;;10.91;100.00;99882.75;4990471;28;20034;-93
2023/08/31 04:06:01;;;;;;;4.85;1.80;;;;;;;10.87;100.00;99886.47;4983101;28;20101;-94
2023/08/31 04:08:27;;;;;;;5.88;2.15;;;;;;;10.88;100.00;99890.72;4979237;28;20107;-93
2023/08/31 04:10:52;;;;;;;5.45;1.90;;;;;;;10.87;100.00;99901.97;4977894;28;20049;-93
2023/08/31 04:13:17;;;;;;;6.65;2.17;;;;;;;10.87;100.00;99892.47;4975728;28;20018;-93
2023/08/31 04:15:43;;;;;;;4.53;2.25;;;;;;;10.94;100.00;99890.28;4974097;28;20540;-92
2023/08/31 04:18:08;;;;;;;5.97;2.22;;;;;;;10.93;100.00;99886.91;4973538;28;20027;-93
2023/08/31 04:20:33;;;;;;;7.97;1.90;;;;;;;10.90;100.00;99891.44;4981060;28;20042;-94
2023/08/31 04:22:59;;;;;;;5.15;1.77;;;;;;;10.91;100.00;99896.50;4983312;28;20078;-93
2023/08/31 04:25:24;;;;;;;4.45;1.60;;;;;;;10.97;100.00;99895.25;4995490;28;20084;-93
2023/08/31 04:27:50;;;;;;;6.70;2.00;;;;;;;11.00;100.00;99897.63;4975471;28;20035;-94
2023/08/31 04:30:15;;;;;;;5.72;2.10;;;;;;;10.96;100.00;99906.50;4976557;28;20074;-94
2023/08/31 04:32:41;;;;;;;7.50;1.40;;;;;;;11.02;100.00;99898.38;4976829;28;20081;-93
2023/08/31 04:35:06;;;;;;;9.45;1.70;;;;;;;11.00;100.00;99892.47;4993715;28;20146;-93
2023/08/31 04:37:32;;;;;;;3.75;1.98;;;;;;;11.02;100.00;99897.50;4996054;28;20112;-93
2023/08/31 04:39:58;;;;;;;4.90;1.55;;;;;;;11.05;100.00;99900.72;4992543;28;20026;-94
2023/08/31 04:42:24;;;;;;;4.35;1.42;;;;;;;11.07;100.00;99903.19;4981179;28;20054;-92
2023/08/31 04:44:50;;;;;;;4.22;1.58;;;;;;;11.06;100.00;99898.97;4995922;28;20101;-93
2023/08/31 04:47:15;;;;;;;4.35;1.65;;;;;;;11.03;100.00;99894.84;4988029;28;20077;-93
2023/08/31 04:49:40;;;;;;;4.65;2.05;;;;;;;11.07;100.00;99898.88;4974396;28;20027;-92
2023/08/31 04:52:06;;;;;;;5.40;1.67;;;;;;;11.10;100.00;99903.81;4974797;28;20035;-94
2023/08/31 04:54:31;;;;;;;3.83;1.77;;;;;;;11.07;100.00;99893.72;4977449;28;20030;-94
2023/08/31 04:56:56;;;;;;;3.20;1.85;;;;;;;11.09;100.00;99899.56;4976403;28;20508;-93
2023/08/31 04:59:22;;;;;;;3.67;1.67;;;;;;;11.10;100.00;99890.91;4987446;28;20027;-94
2023/08/31 05:01:47;;;;;;;3.65;1.40;;;;;;;11.06;100.00;99886.88;4983358;28;20058;-93
2023/08/31 05:04:12;;;;;;;2.55;1.58;;;;;;;11.09;100.00;99891.00;4987377;28;20112;-93
2023/08/31 05:06:38;;;;;;;4.35;1.80;;;;;;;11.07;100.00;99893.72;4995659;28;20026;-93
2023/08/31 05:09:04;;;;;;;4.70;2.20;;;;;;;11.06;100.00;99886.06;4987359;28;20062;-94
2023/08/31 05:11:29;;;;;;;3.33;1.42;;;;;;;11.12;100.00;99894.22;4975806;28;20038;-94
2023/08/31 05:13:55;;;;;;;3.45;1.67;;;;;;;11.09;100.00;99891.81;4985714;28;20022;-93
2023/08/31 05:16:20;;;;;;;7.43;1.95;;;;;;;11.08;100.00;99887.59;4995390;28;20433;-94
2023/08/31 05:18:45;;;;;;;4.63;1.75;;;;;;;11.14;100.00;99894.94;4994422;28;20030;-93
2023/08/31 05:21:11;;;;;;;3.80;1.70;;;;;;;11.16;100.00;99891.41;4995203;28;20473;-94
2023/08/31 05:23:37;;;;;;;3.97;1.70;;;;;;;11.24;100.00;99895.16;4994912;28;20045;-93
2023/08/31 05:26:02;;;;;;;4.03;2.05;;;;;;;11.19;100.00;99892.03;4995221;28;20026;-93
2023/08/31 05:28:27;;;;;;;2.85;1.70;;;;;;;11.21;100.00;99885.00;4995099;28;20026;-94
2023/08/31 05:30:57;;;;;;;4.30;1.70;;;;;;;11.20;100.00;99887.69;4995328;28;20027;-95
2023/08/31 05:33:22;;;;;;;4.20;1.95;;;;;;;11.14;100.00;99887.19;4998134;28;20030;-93
2023/08/31 05:35:48;;;;;;;6.22;1.55;;;;;;;11.19;100.00;99886.84;5015072;28;20029;-94
2023/08/31 05:38:14;;;;;;;3.42;1.58;;;;;;;11.19;100.00;99881.69;5014734;28;20564;-94
2023/08/31 05:40:45;;;;;;;2.92;1.40;;;;;;;11.16;100.00;99881.91;5014680;28;20025;-94
2023/08/31 05:43:10;;;;;;;3.20;1.55;;;;;;;11.20;100.00;99882.53;5009515;28;20018;-94
2023/08/31 05:45:35;;;;;;;4.97;1.70;;;;;;;11.26;100.00;99879.50;4994733;28;20048;-94
2023/08/31 05:48:01;;;;;;;2.90;1.10;;;;;;;11.28;100.00;99873.31;4994077;28;20487;-92
2023/08/31 05:50:27;;;;;;;2.92;1.30;;;;;;;11.31;100.00;99867.94;4979184;28;20548;-94
2023/08/31 05:52:53;;;;;;;4.07;1.50;;;;;;;11.28;100.00;99870.72;4976250;28;20459;-93
2023/08/31 05:55:18;;;;;;;5.43;2.22;;;;;;;11.36;100.00;99872.78;4994419;28;20026;-93
2023/08/31 05:57:44;;;;;;;3.50;1.30;;;;;;;11.38;100.00;99878.66;4994525;28;20088;-93
2023/08/31 06:00:10;;;;;;;11.93;2.42;;;;;;;11.35;100.00;99876.31;4992909;28;20097;-93
2023/08/31 06:02:35;;;;;;;2.17;1.40;;;;;;;11.37;100.00;99874.44;4993808;28;20498;-93
2023/08/31 06:05:02;;;;;;;3.33;1.63;;;;;;;11.43;100.00;99866.25;4994246;28;20077;-94
2023/08/31 06:07:28;;;;;;;3.42;2.17;;;;;;;11.42;100.00;99874.13;4994454;28;20495;-94
2023/08/31 06:09:54;;;;;;;3.35;1.20;;;;;;;11.34;100.00;99869.50;4993144;28;20030;-94
2023/08/31 06:12:20;;;;;;;4.55;1.52;;;;;;;11.36;100.00;99880.53;4994399;28;20030;-94
2023/08/31 06:14:45;;;;;;;2.63;1.30;;;;;;;11.37;100.00;99874.44;4994596;28;20106;-94
2023/08/31 06:17:12;;;;;;;2.42;1.33;;;;;;;11.35;100.00;99882.28;4991894;28;20100;-95
2023/08/31 06:19:41;;;;;;;2.97;1.70;;;;;;;11.38;100.00;99875.25;4993567;28;20488;-95
2023/08/31 06:22:07;;;;;;;9.10;1.45;;;;;;;11.36;100.00;99872.78;4993113;28;20033;-95
2023/08/31 06:24:33;;;;;;;4.25;1.80;;;;;;;11.47;100.00;99885.78;4993981;28;20030;-96
2023/08/31 06:26:59;;;;;;;3.92;1.58;;;;;;;11.43;100.00;99881.75;4992784;28;20511;-95
2023/08/31 06:29:25;;;;;;;4.70;2.03;;;;;;;11.52;100.00;99880.28;4994124;28;20069;-94
2023/08/31 06:31:50;;;;;;;2.63;1.42;;;;;;;11.56;100.00;99882.56;4993370;28;20113;-94
2023/08/31 06:34:15;;;;;;;2.22;1.33;;;;;;;11.62;100.00;99885.63;4994068;28;20022;-95
2023/08/31 06:36:41;;;;;;;3.13;1.58;;;;;;;11.75;100.00;99897.59;4994328;28;20026;-94
2023/08/31 06:39:07;;;;;;;4.20;1.73;;;;;;;11.72;100.00;99889.22;4993973;28;20427;-95
2023/08/31 06:41:32;;;;;;;3.67;1.70;;;;;;;11.73;100.00;99891.72;4992044;28;20026;-95
2023/08/31 06:43:58;;;;;;;4.22;1.83;;;;;;;11.80;100.00;99892.06;4992716;28;20032;-95
2023/08/31 06:46:23;;;;;;;2.90;1.27;;;;;;;11.83;100.00;99894.47;4980342;28;20026;-96
2023/08/31 06:48:48;;;;;;;3.92;1.48;;;;;;;11.81;100.00;99898.91;4993106;28;20026;-96
2023/08/31 06:51:15;;;;;;;1.90;1.25;;;;;;;11.78;100.00;99893.97;4993672;28;20114;-96
2023/08/31 06:53:42;;;;;;;4.80;1.52;;;;;;;11.81;100.00;99893.75;4992866;28;20037;-96
2023/08/31 06:56:07;;;;;;;3.78;1.63;;;;;;;11.83;100.00;99897.06;4994166;28;20041;-95
2023/08/31 06:58:32;;;;;;;3.70;1.52;;;;;;;11.87;100.00;99897.66;4994219;28;20110;-94
2023/08/31 07:00:58;;;;;;;4.30;1.35;;;;;;;11.97;100.00;99896.06;4994653;28;20088;-95
2023/08/31 07:03:23;;;;;;;2.33;1.10;;;;;;;11.99;100.00;99891.63;4993018;28;20251;-95
2023/08/31 07:05:49;;;;;;;3.83;1.63;;;;;;;11.99;100.00;99892.44;4994031;28;20354;-95
2023/08/31 07:08:14;;;;;;;5.40;1.50;;;;;;;12.04;100.00;99883.53;4993613;28;20030;-95
2023/08/31 07:10:39;;;;;;;5.85;1.48;;;;;;;12.04;100.00;99889.53;4993925;28;20076;-95
2023/08/31 07:13:05;;;;;;;1.95;1.27;;;;;;;12.09;100.00;99886.59;4992856;28;20476;-95
2023/08/31 07:15:31;;;;;;;1.70;1.20;;;;;;;12.10;100.00;99888.28;4993584;28;20039;-95
2023/08/31 07:17:56;;;;;;;2.72;1.40;;;;;;;12.16;100.00;99892.97;4991850;28;20031;-96
2023/08/31 07:20:21;;;;;;;3.28;1.90;;;;;;;12.15;100.00;99894.75;4993673;28;20068;-95
2023/08/31 07:22:47;;;;;;;5.65;1.65;;;;;;;12.11;100.00;99890.72;4992391;28;20026;-95
2023/08/31 07:25:12;;;;;;;5.63;1.90;;;;;;;12.07;100.00;99893.66;4992730;28;20034;-95
2023/08/31 07:27:38;;;;;;;4.90;1.70;;;;;;;12.10;100.00;99894.28;4993754;28;20030;-96
2023/08/31 07:30:05;;;;;;;3.25;1.35;;;;;;;12.10;100.00;99893.44;4992162;28;20022;-96
2023/08/31 07:32:31;;;;;;;4.40;1.58;;;;;;;12.11;100.00;99889.91;4992203;28;20366;-96
2023/08/31 07:34:56;;;;;;;3.90;1.80;;;;;;;12.16;100.00;99882.63;4993309;28;20038;-96
2023/08/31 07:37:22;;;;;;;7.07;1.30;;;;;;;12.22;100.00;99887.38;4992041;28;20037;-96
2023/08/31 07:39:47;;;;;;;2.70;1.15;;;;;;;12.15;100.00;99891.34;4992410;28;20547;-95
2023/08/31 07:42:12;;;;;;;6.57;1.23;;;;;;;12.12;100.00;99887.22;4992886;28;20531;-96
2023/08/31 07:44:38;;;;;;;6.20;1.70;;;;;;;12.08;100.00;99884.97;4992075;28;20022;-96
2023/08/31 07:47:03;;;;;;;5.50;1.25;;;;;;;12.07;100.00;99888.47;4991189;28;20030;-96
2023/08/31 07:49:28;;;;;;;6.35;1.83;;;;;;;12.08;100.00;99883.19;4992215;28;20026;-95
2023/08/31 07:51:54;;;;;;;5.80;1.20;;;;;;;12.09;100.00;99881.44;4992303;28;20041;-96
2023/08/31 07:54:21;;;;;;;5.03;1.38;;;;;;;12.10;100.00;99883.91;4992984;28;20028;-96
2023/08/31 07:56:46;;;;;;;4.35;1.65;;;;;;;12.17;100.00;99879.94;4991919;28;20030;-96
2023/08/31 07:59:12;;;;;;;3.38;1.00;;;;;;;12.17;100.00;99873.97;4992465;28;20236;-96
2023/08/31 08:01:37;;;;;;;3.00;0.90;;;;;;;12.21;100.00;99875.38;4992401;28;20026;-96
2023/08/31 08:04:02;;;;;;;2.97;1.23;;;;;;;12.26;100.00;99878.44;4992462;28;20033;-95
2023/08/31 08:06:28;;;;;;;5.50;1.60;;;;;;;12.28;100.00;99873.16;4993479;28;20468;-95
2023/08/31 08:08:53;;;;;;;6.88;2.22;;;;;;;12.30;100.00;99869.53;4992576;28;20023;-96
2023/08/31 08:11:19;;;;;;;5.53;1.42;;;;;;;12.32;100.00;99877.19;4992723;28;20473;-96
2023/08/31 08:13:44;;;;;;;4.45;1.67;;;;;;;12.43;100.00;99867.66;4992070;28;20026;-96
2023/08/31 08:16:10;;;;;;;3.00;1.70;;;;;;;12.49;100.00;99870.75;4991686;28;20049;-96
2023/08/31 08:18:35;;;;;;;4.15;1.52;;;;;;;12.40;100.00;99867.91;4997113;28;20512;-96
2023/08/31 08:21:00;;;;;;;5.57;1.35;;;;;;;12.32;100.00;99872.81;4991997;28;20476;-96
2023/08/31 08:23:26;;;;;;;10.27;3.08;;;;;;;12.42;100.00;99873.78;4993399;28;20023;-96
2023/08/31 08:25:51;;;;;;;4.68;2.10;;;;;;;12.30;100.00;99869.53;4992621;28;20022;-96
2023/08/31 08:28:17;;;;;;;5.70;1.50;;;;;;;12.31;100.00;99875.50;4993363;28;20114;-96
2023/08/31 08:30:42;;;;;;;5.03;2.08;;;;;;;12.36;100.00;99869.09;4994941;28;20029;-96
2023/08/31 08:33:08;;;;;;;4.25;1.70;;;;;;;12.57;100.00;99871.00;4995803;28;20049;-96
2023/08/31 08:38:22;;;;;;;5.00;1.42;;;;;;;12.56;100.00;99865.00;5094972;23;20046;-96
2023/08/31 08:40:48;;;;;;;4.40;1.95;;;;;;;12.53;100.00;99865.22;5291143;23;20038;-96
2023/08/31 08:43:14;;;;;;;5.10;1.95;;;;;;;12.51;100.00;99869.69;4997620;28;20037;-94
2023/08/31 08:45:41;;;;;;;5.72;1.83;;;;;;;12.38;100.00;99872.34;4992288;28;20109;-93
2023/08/31 08:48:08;;;;;;;7.82;2.55;;;;;;;12.60;100.00;99869.00;4991750;28;20113;-94
2023/08/31 08:50:34;;;;;;;7.68;2.30;;;;;;;12.72;100.00;99869.84;4993317;28;20053;-95
2023/08/31 08:53:02;;;;;;;4.55;1.58;;;;;;;12.62;100.00;99868.88;4992764;28;20548;-93
2023/08/31 08:55:27;;;;;;;5.93;1.67;;;;;;;12.82;100.00;99863.00;4993164;28;20026;-93
2023/08/31 08:57:52;;;;;;;6.78;1.83;;;;;;;12.79;100.00;99871.03;4992426;28;20077;-93
2023/08/31 09:00:18;;;;;;;5.93;1.98;;;;;;;12.94;100.00;99863.84;4991932;28;20110;-93
2023/08/31 09:02:45;;;;;;;5.22;2.60;;;;;;;12.94;100.00;99866.44;4990018;28;20517;-95
2023/08/31 09:05:10;;;;;;;4.40;1.63;;;;;;;12.98;100.00;99864.47;4991222;28;20027;-93
2023/08/31 09:07:38;;;;;;;4.28;2.00;;;;;;;13.05;100.00;99873.41;4995180;28;20388;-93
2023/08/31 09:10:04;;;;;;;4.43;1.98;;;;;;;13.08;100.00;99878.34;4994762;28;20487;-93
2023/08/31 09:12:30;;;;;;;4.78;1.70;;;;;;;12.96;100.00;99866.34;4995801;28;20420;-93
2023/08/31 09:15:04;;;;;;;4.50;2.72;;;;;;;12.98;100.00;99859.28;4994177;28;20026;-92
2023/08/31 09:17:47;;;;;;;3.83;1.73;;;;;;;12.99;100.00;99866.91;4993677;28;20097;-94
2023/08/31 09:20:12;;;;;;;3.33;2.20;;;;;;;13.10;100.00;99868.69;4995763;28;20033;-93
2023/08/31 09:22:42;;;;;;;5.70;2.22;;;;;;;12.76;100.00;99871.25;4994064;28;20121;-93
2023/08/31 09:25:08;;;;;;;8.35;2.25;;;;;;;12.72;100.00;99875.00;4994864;28;20114;-94
2023/08/31 09:27:38;;;;;;;7.00;1.88;;;;;;;12.45;100.00;99866.75;4995809;28;20058;-93
2023/08/31 09:30:05;;;;;;;5.68;1.95;;;;;;;12.37;100.00;99862.94;5014685;28;20478;-95
2023/08/31 09:32:30;;;;;;;6.30;1.70;;;;;;;12.14;100.00;99864.66;5013165;28;20033;-92
2023/08/31 09:34:56;;;;;;;7.05;1.70;;;;;;;12.35;100.00;99867.41;5014987;28;20032;-95
2023/08/31 09:37:21;;;;;;;6.25;2.00;;;;;;;12.52;100.00;99860.16;5014536;28;20018;-93
2023/08/31 09:39:47;;;;;;;6.15;1.73;;;;;;;12.47;100.00;99849.34;5004904;28;20034;-93
2023/08/31 09:42:12;;;;;;;8.65;1.30;;;;;;;12.70;100.00;99840.63;4995350;28;20542;-93
2023/08/31 09:44:43;;;;;;;5.43;1.45;;;;;;;12.91;100.00;99847.72;4993854;28;20069;-94
2023/08/31 09:47:09;;;;;;;5.20;1.50;;;;;;;13.07;100.00;99846.44;4994794;28;20030;-94
2023/08/31 09:49:35;;;;;;;2.92;1.63;;;;;;;13.00;100.00;99847.03;4994633;28;20031;-94
2023/08/31 09:52:03;;;;;;;4.38;1.95;;;;;;;12.97;100.00;99836.88;4995358;28;20038;-94
2023/08/31 09:54:29;;;;;;;5.60;1.30;;;;;;;12.53;100.00;99848.84;4993841;28;20072;-94
2023/08/31 09:56:56;;;;;;;5.38;1.40;;;;;;;12.40;100.00;99838.59;4995170;28;20022;-93
2023/08/31 09:59:22;;;;;;;2.88;1.10;;;;;;;12.33;100.00;99835.66;4994972;28;20030;-93
2023/08/31 10:01:47;;;;;;;7.25;1.50;;;;;;;12.40;100.00;99844.59;4993534;28;20030;-94
2023/08/31 10:04:13;;;;;;;3.70;1.42;;;;;;;12.50;100.00;99836.97;4993061;28;20034;-94
2023/08/31 10:06:40;;;;;;;8.48;2.42;;;;;;;12.14;100.00;99840.53;4992326;28;20388;-93
2023/08/31 10:09:05;;;;;;;5.43;1.27;;;;;;;12.43;100.00;99839.19;4994949;28;20019;-93
2023/08/31 10:11:32;;;;;;;4.13;1.15;;;;;;;12.45;100.00;99851.22;4993182;28;20049;-93
2023/08/31 10:13:58;;;;;;;5.20;1.80;;;;;;;12.50;100.00;99838.75;4993710;28;20357;-93
2023/08/31 10:16:27;;;;;;;7.32;1.77;;;;;;;12.53;100.00;99833.31;4993636;28;20169;-93
2023/08/31 10:18:55;;;;;;;8.85;1.50;;;;;;;12.41;100.00;99830.75;4992969;28;20022;-95
2023/08/31 10:21:21;;;;;;;8.43;2.20;;;;;;;12.37;100.00;99837.06;4993522;28;20026;-94
2023/08/31 10:23:48;;;;;;;2.47;1.33;;;;;;;12.47;100.00;99836.41;4994262;28;20482;-96
2023/08/31 10:26:26;;;;;;;3.10;1.30;;;;;;;12.50;100.00;99834.38;4999740;28;20044;-95
2023/08/31 10:28:53;;;;;;;2.50;1.20;;;;;;;12.46;100.00;99835.56;4993213;28;20038;-93
2023/08/31 10:31:22;;;;;;;5.07;1.40;;;;;;;12.47;100.00;99823.44;4992611;28;20030;-92
2023/08/31 10:34:03;;;;;;;3.83;1.23;;;;;;;12.62;100.00;99812.75;4990085;28;20035;-92
2023/08/31 10:36:39;;;;;;;4.28;1.30;;;;;;;12.72;100.00;99817.22;4987000;28;20053;-92
2023/08/31 10:39:13;;;;;;;3.30;1.40;;;;;;;12.79;100.00;99811.47;4993187;28;20485;-92
2023/08/31 10:41:38;;;;;;;3.83;1.50;;;;;;;12.80;100.00;99820.91;4992573;28;20030;-93
2023/08/31 10:44:30;;;;;;;5.28;1.30;;;;;;;12.64;100.00;99825.59;4998266;28;20092;-95
2023/08/31 10:46:59;;;;;;;3.45;1.30;;;;;;;12.85;100.00;99823.97;5003206;28;20027;-94
2023/08/31 10:49:25;;;;;;;6.88;1.30;;;;;;;12.84;100.00;99822.28;4993315;28;20031;-94
2023/08/31 10:51:57;;;;;;;4.05;1.05;;;;;;;13.07;100.00;99814.53;4993592;28;20030;-94
2023/08/31 10:54:25;;;;;;;2.92;1.33;;;;;;;13.07;100.00;99811.94;4994160;28;20041;-93
2023/08/31 10:56:56;;;;;;;3.33;1.73;;;;;;;13.17;100.00;99806.88;4994372;28;20105;-94
2023/08/31 10:59:23;;;;;;;1.85;0.90;;;;;;;13.01;100.00;99807.22;4994678;28;20029;-95
2023/08/31 11:01:55;;;;;;;2.83;0.90;;;;;;;12.98;100.00;99802.28;4992892;28;20465;-93
2023/08/31 11:04:25;;;;;;;2.85;1.13;;;;;;;13.17;100.00;99801.69;4992869;28;20559;-95
2023/08/31 11:07:13;;;;;;;4.45;1.08;;;;;;;13.35;100.00;99802.03;4993200;28;20097;-95
2023/08/31 11:09:38;;;;;;;7.20;1.40;;;;;;;13.36;100.00;99806.25;4993306;28;20023;-94
2023/08/31 11:12:04;;;;;;;3.17;1.13;;;;;;;13.52;100.00;99801.50;4992924;28;20057;-94
2023/08/31 11:14:29;;;;;;;2.42;0.93;;;;;;;13.58;100.00;99805.34;4993110;28;20041;-95
2023/08/31 11:16:55;;;;;;;2.17;0.82;;;;;;;13.53;100.00;99802.31;4993838;28;20046;-95
2023/08/31 11:19:21;;;;;;;4.80;1.05;;;;;;;13.70;100.00;99805.22;4992232;28;20061;-94
2023/08/31 11:21:46;;;;;;;2.55;1.08;;;;;;;13.58;100.00;99807.94;4993516;28;20026;-93
2023/08/31 11:24:12;;;;;;;3.28;1.20;;;;;;;13.42;100.00;99811.78;4992916;28;20512;-93